createdAt,value
2019-05-23T00:01:20.087Z,9.70
2019-05-23T00:03:52.929Z,9.70
2019-05-23T00:06:23.569Z,9.70
2019-05-23T00:08:52.549Z,9.90
2019-05-23T00:11:40.574Z,10.10
2019-05-23T00:14:21.482Z,10.20
2019-05-23T00:16:51.789Z,10.20
2019-05-23T00:19:21.077Z,10.30
2019-05-23T00:21:50.171Z,10.40
2019-05-23T00:24:19.613Z,10.40
2019-05-23T00:26:48.517Z,10.40
2019-05-23T00:29:40.404Z,10.40
2019-05-23T00:32:26.217Z,10.30
2019-05-23T00:34:56.975Z,10.30
2019-05-23T00:37:27.502Z,10.30
2019-05-23T00:39:55.937Z,10.20
2019-05-23T00:42:26.174Z,9.80
2019-05-23T00:44:56.078Z,9.60
2019-05-23T00:47:24.614Z,9.50
2019-05-23T00:49:53.540Z,9.60
2019-05-23T00:52:22.034Z,9.40
2019-05-23T00:54:51.031Z,9.20
2019-05-23T00:57:19.744Z,9.10
2019-05-23T00:59:49.114Z,9.00
2019-05-23T01:02:18.041Z,9.00
2019-05-23T01:04:47.186Z,9.00
2019-05-23T01:07:16.672Z,9.00
2019-05-23T01:09:46.364Z,9.00
2019-05-23T01:12:15.826Z,9.30
2019-05-23T01:14:44.450Z,9.50
2019-05-23T01:17:12.906Z,9.50
2019-05-23T01:19:42.309Z,9.40
2019-05-23T01:22:12.484Z,9.40
2019-05-23T01:24:42.729Z,9.50
2019-05-23T01:27:13.054Z,9.10
2019-05-23T01:29:49.286Z,8.80
2019-05-23T01:32:27.633Z,8.60
2019-05-23T01:34:56.709Z,8.50
2019-05-23T01:37:26.113Z,8.60
2019-05-23T01:39:55.386Z,8.80
2019-05-23T01:42:26.218Z,9.00
2019-05-23T01:44:55.741Z,8.90
2019-05-23T01:47:24.192Z,8.70
2019-05-23T01:49:53.224Z,8.60
2019-05-23T01:52:22.123Z,8.50
2019-05-23T01:54:50.673Z,8.50
2019-05-23T01:57:19.768Z,8.40
2019-05-23T01:59:48.262Z,8.40
2019-05-23T02:02:18.389Z,8.40
2019-05-23T02:04:47.046Z,8.60
2019-05-23T02:07:16.537Z,8.70
2019-05-23T02:09:45.073Z,8.70
2019-05-23T02:12:14.069Z,8.80
2019-05-23T02:14:44.191Z,8.80
2019-05-23T02:17:13.671Z,8.80
2019-05-23T02:19:42.332Z,8.90
2019-05-23T02:22:13.101Z,8.90
2019-05-23T02:24:42.314Z,8.80
2019-05-23T02:27:11.881Z,8.80
2019-05-23T02:29:41.955Z,9.00
2019-05-23T02:32:12.007Z,9.10
2019-05-23T02:34:41.311Z,9.10
2019-05-23T02:37:11.604Z,9.10
2019-05-23T02:39:45.119Z,9.20
2019-05-23T02:42:15.296Z,9.00
2019-05-23T02:44:44.571Z,8.80
2019-05-23T02:47:32.150Z,8.70
2019-05-23T02:50:02.322Z,8.60
2019-05-23T02:52:44.021Z,8.60
2019-05-23T02:55:16.076Z,8.60
2019-05-23T02:57:47.422Z,8.50
2019-05-23T03:00:54.306Z,8.60
2019-05-23T03:03:24.457Z,8.60
2019-05-23T03:05:53.555Z,8.50
2019-05-23T03:08:23.694Z,8.60
2019-05-23T03:11:01.965Z,8.60
2019-05-23T03:13:33.541Z,8.50
2019-05-23T03:16:02.498Z,8.40
2019-05-23T03:18:34.929Z,8.30
2019-05-23T03:21:05.755Z,8.20
2019-05-23T03:23:35.524Z,8.20
2019-05-23T03:26:25.950Z,8.20
2019-05-23T03:28:56.034Z,8.20
2019-05-23T03:31:32.045Z,8.20
2019-05-23T03:33:59.174Z,8.30
2019-05-23T03:36:28.673Z,8.40
2019-05-23T03:38:58.068Z,8.40
2019-05-23T03:41:28.212Z,8.40
2019-05-23T03:43:56.916Z,8.30
2019-05-23T03:46:27.066Z,8.40
2019-05-23T03:48:55.787Z,8.40
2019-05-23T03:51:24.213Z,8.40
2019-05-23T03:53:54.622Z,8.50
2019-05-23T03:56:23.052Z,8.60
2019-05-23T03:58:54.116Z,8.50
2019-05-23T04:01:24.213Z,8.60
2019-05-23T04:03:52.676Z,8.70
2019-05-23T04:06:21.183Z,8.70
2019-05-23T04:08:50.610Z,8.70
2019-05-23T04:11:19.860Z,8.80
2019-05-23T04:13:48.530Z,8.90
2019-05-23T04:16:17.666Z,9.00
2019-05-23T04:18:46.095Z,9.20
2019-05-23T04:21:15.435Z,9.40
2019-05-23T04:23:44.010Z,9.50
2019-05-23T04:26:12.905Z,9.60
2019-05-23T04:28:42.474Z,9.70
2019-05-23T04:31:13.118Z,9.30
2019-05-23T04:33:42.049Z,9.30
2019-05-23T04:36:10.880Z,9.40
2019-05-23T04:38:39.445Z,9.40
2019-05-23T04:41:07.978Z,9.30
2019-05-23T04:43:36.447Z,9.50
2019-05-23T04:46:05.833Z,9.50
2019-05-23T04:48:35.289Z,9.60
2019-05-23T04:51:04.767Z,9.60
2019-05-23T04:53:33.290Z,9.60
2019-05-23T04:56:02.966Z,9.70
2019-05-23T04:58:31.894Z,9.90
2019-05-23T05:01:00.970Z,10.00
2019-05-23T05:03:30.564Z,10.10
2019-05-23T05:06:00.543Z,10.20
2019-05-23T05:08:29.235Z,10.10
2019-05-23T05:10:58.358Z,10.00
2019-05-23T05:13:27.342Z,10.00
2019-05-23T05:15:55.984Z,9.90
2019-05-23T05:18:24.617Z,9.90
2019-05-23T05:20:53.095Z,10.00
2019-05-23T05:23:21.927Z,10.00
2019-05-23T05:25:50.373Z,10.00
2019-05-23T05:28:18.822Z,9.70
2019-05-23T05:30:47.707Z,10.00
2019-05-23T05:33:16.806Z,10.10
2019-05-23T05:35:45.246Z,10.30
2019-05-23T05:38:14.122Z,10.30
2019-05-23T05:40:42.649Z,10.50
2019-05-23T05:43:11.671Z,10.50
2019-05-23T05:45:40.113Z,10.60
2019-05-23T05:48:08.976Z,10.70
2019-05-23T05:50:38.329Z,10.80
2019-05-23T05:53:06.861Z,11.00
2019-05-23T05:55:35.363Z,11.10
2019-05-23T05:58:04.171Z,11.20
2019-05-23T06:00:49.712Z,11.40
2019-05-23T06:03:18.547Z,11.30
2019-05-23T06:05:51.962Z,11.80
2019-05-23T06:08:22.912Z,11.90
2019-05-23T06:10:51.675Z,12.30
2019-05-23T06:13:20.349Z,12.40
2019-05-23T06:15:49.615Z,12.60
2019-05-23T06:18:18.633Z,12.60
2019-05-23T06:20:47.611Z,12.80
2019-05-23T06:23:17.570Z,12.40
2019-05-23T06:25:46.157Z,12.40
2019-05-23T06:28:15.831Z,12.90
2019-05-23T06:30:44.531Z,13.30
2019-05-23T06:33:23.151Z,13.40
2019-05-23T06:35:43.944Z,13.80
2019-05-23T06:38:12.632Z,13.40
2019-05-23T06:40:41.577Z,13.60
2019-05-23T06:43:10.723Z,13.50
2019-05-23T06:45:41.570Z,13.70
2019-05-23T06:48:13.220Z,14.30
2019-05-23T06:50:41.798Z,13.60
2019-05-23T06:53:10.687Z,13.50
2019-05-23T06:55:39.182Z,13.70
2019-05-23T06:58:07.963Z,13.70
2019-05-23T07:00:37.133Z,14.30
2019-05-23T07:03:06.458Z,14.30
2019-05-23T07:05:36.840Z,14.40
2019-05-23T07:08:06.685Z,14.40
2019-05-23T07:10:35.367Z,15.10
2019-05-23T07:13:04.967Z,15.20
2019-05-23T07:15:33.670Z,15.60
2019-05-23T07:18:02.837Z,15.50
2019-05-23T07:20:31.384Z,15.10
2019-05-23T07:23:00.193Z,15.50
2019-05-23T07:25:28.734Z,15.50
2019-05-23T07:27:57.198Z,15.00
2019-05-23T07:30:26.628Z,15.00
2019-05-23T07:32:55.674Z,15.10
2019-05-23T07:35:25.944Z,15.10
2019-05-23T07:37:54.750Z,15.40
2019-05-23T07:40:26.271Z,15.90
2019-05-23T07:42:55.408Z,16.10
2019-05-23T07:45:25.476Z,16.00
2019-05-23T07:47:54.718Z,16.80
2019-05-23T07:50:23.267Z,16.80
2019-05-23T07:52:53.197Z,16.80
2019-05-23T07:55:35.261Z,16.50
2019-05-23T07:58:04.265Z,17.00
2019-05-23T08:00:37.000Z,17.00
2019-05-23T08:03:07.061Z,17.40
2019-05-23T08:05:35.836Z,17.40
2019-05-23T08:08:05.771Z,17.10
2019-05-23T08:10:34.956Z,17.10
2019-05-23T08:13:03.600Z,17.30
2019-05-23T08:15:33.343Z,17.50
2019-05-23T08:18:01.874Z,17.30
2019-05-23T08:20:30.314Z,17.90
2019-05-23T08:22:58.853Z,17.40
2019-05-23T08:25:27.576Z,17.40
2019-05-23T08:27:56.025Z,17.80
2019-05-23T08:30:25.142Z,17.60
2019-05-23T08:32:53.646Z,18.30
2019-05-23T08:35:22.243Z,18.50
2019-05-23T08:37:50.910Z,18.80
2019-05-23T08:40:19.930Z,18.70
2019-05-23T08:42:48.870Z,19.20
2019-05-23T08:45:18.841Z,19.60
2019-05-23T08:47:47.299Z,19.80
2019-05-23T08:50:18.473Z,19.70
2019-05-23T08:52:46.975Z,19.30
2019-05-23T08:55:27.937Z,19.00
2019-05-23T08:57:56.968Z,19.30
2019-05-23T09:00:27.640Z,19.20
2019-05-23T09:02:58.862Z,19.40
2019-05-23T09:05:31.915Z,19.20
2019-05-23T09:08:00.907Z,19.50
2019-05-23T09:10:29.682Z,19.40
2019-05-23T09:12:59.949Z,19.80
2019-05-23T09:15:28.611Z,19.90
2019-05-23T09:17:57.314Z,20.50
2019-05-23T09:20:26.006Z,20.10
2019-05-23T09:22:54.742Z,19.80
2019-05-23T09:25:23.339Z,19.40
2019-05-23T09:27:53.314Z,19.30
2019-05-23T09:30:24.962Z,19.40
2019-05-23T09:32:53.467Z,19.60
2019-05-23T09:35:22.483Z,19.90
2019-05-23T09:37:51.105Z,19.70
2019-05-23T09:40:19.680Z,20.00
2019-05-23T09:42:48.139Z,20.40
2019-05-23T09:45:18.252Z,20.00
2019-05-23T09:47:51.099Z,20.50
2019-05-23T09:50:18.832Z,20.40
2019-05-23T09:52:47.379Z,20.10
2019-05-23T09:55:16.946Z,19.60
2019-05-23T09:57:45.613Z,19.80
2019-05-23T10:00:16.957Z,20.00
2019-05-23T10:02:45.396Z,20.10
2019-05-23T10:05:14.109Z,19.90
2019-05-23T10:07:42.753Z,20.30
2019-05-23T10:10:12.930Z,20.40
2019-05-23T10:12:41.644Z,20.50
2019-05-23T10:15:12.688Z,20.50
2019-05-23T10:17:41.130Z,20.50
2019-05-23T10:20:10.346Z,20.30
2019-05-23T10:22:38.778Z,20.30
2019-05-23T10:25:07.759Z,20.70
2019-05-23T10:27:36.293Z,20.30
2019-05-23T10:30:09.473Z,20.50
2019-05-23T10:32:38.085Z,20.40
2019-05-23T10:35:08.053Z,21.00
2019-05-23T10:37:36.896Z,20.10
2019-05-23T10:40:07.407Z,20.70
2019-05-23T10:42:36.858Z,20.70
2019-05-23T10:45:09.176Z,20.50
2019-05-23T10:47:37.877Z,21.20
2019-05-23T10:50:09.324Z,21.70
2019-05-23T10:52:37.791Z,20.80
2019-05-23T10:55:07.256Z,20.40
2019-05-23T10:57:35.832Z,20.10
2019-05-23T11:00:09.904Z,20.00
2019-05-23T11:02:39.438Z,20.00
2019-05-23T11:05:13.693Z,20.50
2019-05-23T11:07:43.741Z,20.90
2019-05-23T11:10:12.910Z,20.90
2019-05-23T11:12:42.386Z,21.00
2019-05-23T11:15:11.886Z,21.00
2019-05-23T11:17:40.831Z,20.70
2019-05-23T11:20:10.939Z,20.70
2019-05-23T11:22:39.511Z,21.00
2019-05-23T11:25:10.253Z,20.90
2019-05-23T11:27:39.050Z,21.20
2019-05-23T11:30:11.077Z,20.70
2019-05-23T11:32:39.522Z,21.20
2019-05-23T11:35:08.392Z,21.10
2019-05-23T11:37:36.885Z,21.60
2019-05-23T11:40:07.276Z,21.20
2019-05-23T11:42:36.317Z,20.90
2019-05-23T11:45:07.230Z,21.40
2019-05-23T11:47:35.949Z,21.20
2019-05-23T11:50:09.166Z,21.10
2019-05-23T11:52:38.004Z,21.30
2019-05-23T11:55:08.298Z,21.10
2019-05-23T11:57:38.490Z,20.80
2019-05-23T12:00:10.506Z,21.00
2019-05-23T12:02:43.669Z,21.00
2019-05-23T12:05:14.259Z,21.40
2019-05-23T12:07:42.834Z,21.70
2019-05-23T12:10:11.616Z,21.50
2019-05-23T12:12:40.097Z,21.30
2019-05-23T12:15:13.059Z,21.10
2019-05-23T12:17:42.458Z,21.50
2019-05-23T12:20:11.865Z,21.80
2019-05-23T12:22:40.686Z,21.60
2019-05-23T12:25:22.084Z,21.90
2019-05-23T12:27:41.822Z,22.10
2019-05-23T12:30:13.865Z,22.20
2019-05-23T12:32:42.584Z,21.70
2019-05-23T12:35:12.176Z,22.30
2019-05-23T12:37:41.070Z,23.00
2019-05-23T12:40:11.616Z,22.90
2019-05-23T12:42:40.192Z,22.10
2019-05-23T12:45:10.777Z,21.60
2019-05-23T12:47:59.522Z,21.30
2019-05-23T12:50:30.162Z,21.20
2019-05-23T12:52:58.622Z,21.30
2019-05-23T12:55:27.296Z,21.60
2019-05-23T12:57:55.770Z,21.80
2019-05-23T13:00:41.500Z,21.60
2019-05-23T13:03:11.853Z,21.80
2019-05-23T13:05:41.265Z,22.00
2019-05-23T13:08:09.831Z,22.00
2019-05-23T13:10:38.507Z,21.90
2019-05-23T13:13:07.887Z,22.20
2019-05-23T13:15:37.637Z,22.50
2019-05-23T13:18:06.094Z,21.80
2019-05-23T13:20:34.723Z,22.10
2019-05-23T13:23:03.340Z,22.10
2019-05-23T13:25:32.473Z,22.10
2019-05-23T13:28:01.524Z,22.20
2019-05-23T13:30:30.018Z,22.30
2019-05-23T13:32:58.559Z,22.40
2019-05-23T13:35:28.807Z,22.60
2019-05-23T13:37:57.341Z,22.10
2019-05-23T13:40:25.864Z,21.30
2019-05-23T13:42:54.338Z,21.20
2019-05-23T13:45:22.915Z,21.50
2019-05-23T13:47:51.966Z,22.00
2019-05-23T13:50:20.960Z,22.40
2019-05-23T13:52:49.876Z,21.90
2019-05-23T13:55:19.610Z,22.00
2019-05-23T13:57:48.254Z,21.70
2019-05-23T14:00:18.145Z,21.90
2019-05-23T14:02:47.352Z,21.90
2019-05-23T14:05:19.118Z,21.80
2019-05-23T14:07:47.658Z,21.80
2019-05-23T14:10:16.754Z,22.50
2019-05-23T14:12:45.558Z,22.30
2019-05-23T14:15:15.733Z,22.40
2019-05-23T14:17:48.376Z,22.10
2019-05-23T14:20:17.255Z,22.30
2019-05-23T14:23:04.405Z,22.20
2019-05-23T14:25:33.942Z,22.20
2019-05-23T14:28:07.124Z,21.80
2019-05-23T14:30:37.397Z,22.00
2019-05-23T14:33:27.161Z,22.10
2019-05-23T14:35:57.760Z,22.20
2019-05-23T14:38:31.089Z,22.40
2019-05-23T14:40:58.325Z,22.30
2019-05-23T14:43:28.030Z,22.00
2019-05-23T14:45:58.476Z,21.80
2019-05-23T14:48:34.782Z,21.80
2019-05-23T14:51:21.844Z,21.70
2019-05-23T14:54:08.600Z,21.60
2019-05-23T14:56:39.270Z,22.00
2019-05-23T14:59:07.745Z,22.00
2019-05-23T15:01:36.367Z,22.10
2019-05-23T15:04:06.057Z,22.00
2019-05-23T15:06:34.734Z,21.90
2019-05-23T15:09:04.025Z,21.90
2019-05-23T15:11:32.530Z,22.00
2019-05-23T15:14:01.144Z,21.80
2019-05-23T15:16:29.645Z,21.80
2019-05-23T15:18:58.181Z,21.90
2019-05-23T15:21:26.614Z,22.10
2019-05-23T15:23:55.090Z,22.10
2019-05-23T15:26:24.045Z,22.30
2019-05-23T15:28:52.834Z,22.20
2019-05-23T15:31:21.501Z,22.20
2019-05-23T15:33:49.951Z,22.20
2019-05-23T15:36:18.517Z,22.10
2019-05-23T15:38:47.072Z,22.10
2019-05-23T15:41:15.565Z,22.10
2019-05-23T15:43:44.293Z,22.00
2019-05-23T15:46:12.822Z,22.00
2019-05-23T15:48:41.406Z,21.90
2019-05-23T15:51:11.505Z,22.10
2019-05-23T15:53:56.679Z,22.30
2019-05-23T15:56:42.356Z,22.10
2019-05-23T15:59:12.466Z,22.00
2019-05-23T16:01:59.398Z,21.90
2019-05-23T16:04:29.075Z,21.90
2019-05-23T16:06:57.674Z,21.70
2019-05-23T16:09:29.934Z,21.80
2019-05-23T16:11:57.802Z,21.80
2019-05-23T16:14:26.713Z,21.80
2019-05-23T16:16:57.258Z,21.80
2019-05-23T16:19:26.197Z,21.90
2019-05-23T16:21:55.190Z,22.00
2019-05-23T16:24:23.706Z,21.90
2019-05-23T16:26:52.318Z,21.60
2019-05-23T16:29:20.919Z,21.70
2019-05-23T16:31:49.417Z,21.90
2019-05-23T16:34:17.922Z,21.40
2019-05-23T16:36:46.659Z,21.40
2019-05-23T16:39:15.973Z,21.60
2019-05-23T16:41:44.388Z,21.70
2019-05-23T16:44:13.215Z,21.60
2019-05-23T16:46:41.760Z,21.80
2019-05-23T16:49:10.308Z,21.80
2019-05-23T16:51:38.922Z,21.80
2019-05-23T16:54:10.799Z,21.80
2019-05-23T16:56:57.528Z,21.80
2019-05-23T16:59:27.822Z,21.80
2019-05-23T17:02:07.050Z,21.70
2019-05-23T17:04:39.860Z,21.60
2019-05-23T17:07:26.580Z,21.70
2019-05-23T17:10:08.212Z,21.60
2019-05-23T17:12:28.594Z,21.70
2019-05-23T17:15:02.149Z,21.70
2019-05-23T17:18:01.188Z,21.40
2019-05-23T17:20:23.388Z,21.50
2019-05-23T17:22:53.570Z,21.50
2019-05-23T17:25:38.620Z,21.60
2019-05-23T17:28:09.117Z,21.60
2019-05-23T17:30:39.622Z,21.40
2019-05-23T17:33:08.320Z,21.40
2019-05-23T17:35:37.051Z,21.40
2019-05-23T17:38:05.488Z,21.20
2019-05-23T17:40:34.309Z,21.20
2019-05-23T17:43:02.834Z,21.10
2019-05-23T17:45:32.023Z,21.10
2019-05-23T17:48:01.021Z,21.00
2019-05-23T17:50:30.097Z,21.00
2019-05-23T17:52:58.587Z,20.90
2019-05-23T17:55:28.095Z,20.90
2019-05-23T17:57:56.993Z,21.00
2019-05-23T18:00:27.512Z,21.00
2019-05-23T18:02:56.522Z,21.00
2019-05-23T18:05:25.087Z,20.90
2019-05-23T18:07:53.619Z,20.70
2019-05-23T18:10:22.441Z,20.80
2019-05-23T18:12:51.824Z,20.80
2019-05-23T18:15:20.843Z,20.90
2019-05-23T18:17:51.091Z,20.80
2019-05-23T18:20:19.681Z,20.80
2019-05-23T18:22:48.322Z,20.80
2019-05-23T18:25:17.098Z,20.80
2019-05-23T18:27:45.610Z,20.80
2019-05-23T18:30:15.950Z,20.60
2019-05-23T18:32:44.496Z,20.60
2019-05-23T18:35:14.170Z,20.60
2019-05-23T18:37:43.279Z,20.50
2019-05-23T18:40:12.070Z,20.40
2019-05-23T18:42:40.538Z,20.50
2019-05-23T18:45:09.381Z,20.40
2019-05-23T18:47:39.635Z,20.00
2019-05-23T18:50:10.210Z,19.90
2019-05-23T18:52:38.928Z,19.80
2019-05-23T18:55:07.739Z,19.80
2019-05-23T18:57:36.837Z,19.60
2019-05-23T19:00:06.888Z,19.70
2019-05-23T19:02:35.631Z,19.60
2019-05-23T19:05:07.347Z,19.50
2019-05-23T19:07:36.103Z,19.40
2019-05-23T19:10:08.917Z,19.30
2019-05-23T19:12:37.774Z,19.20
2019-05-23T19:15:07.183Z,19.10
2019-05-23T19:17:37.151Z,19.00
2019-05-23T19:20:08.730Z,18.90
2019-05-23T19:22:37.327Z,18.70
2019-05-23T19:25:07.999Z,18.70
2019-05-23T19:27:36.835Z,18.50
2019-05-23T19:30:09.093Z,18.40
2019-05-23T19:32:38.259Z,18.40
2019-05-23T19:35:07.877Z,18.30
2019-05-23T19:37:36.492Z,18.20
2019-05-23T19:40:09.519Z,18.00
2019-05-23T19:42:38.267Z,18.00
2019-05-23T19:45:07.679Z,17.90
2019-05-23T19:47:36.158Z,17.70
2019-05-23T19:50:07.881Z,17.50
2019-05-23T19:52:36.480Z,17.40
2019-05-23T19:55:08.706Z,17.40
2019-05-23T19:57:38.511Z,17.20
2019-05-23T20:00:09.515Z,17.10
2019-05-23T20:02:51.936Z,17.00
2019-05-23T20:05:22.037Z,17.00
2019-05-23T20:07:50.472Z,17.00
2019-05-23T20:10:21.350Z,16.90
2019-05-23T20:12:49.852Z,17.00
2019-05-23T20:15:18.512Z,17.00
2019-05-23T20:17:51.073Z,16.90
2019-05-23T20:20:17.702Z,16.80
2019-05-23T20:22:46.229Z,16.70
2019-05-23T20:25:15.278Z,16.60
2019-05-23T20:27:43.887Z,16.50
2019-05-23T20:30:17.111Z,16.40
2019-05-23T20:32:45.595Z,16.40
2019-05-23T20:35:14.648Z,16.50
2019-05-23T20:37:43.259Z,16.50
2019-05-23T20:40:12.095Z,16.50
2019-05-23T20:42:40.662Z,16.40
2019-05-23T20:45:09.647Z,16.40
2019-05-23T20:47:38.257Z,16.30
2019-05-23T20:50:06.958Z,16.30
2019-05-23T20:52:35.408Z,16.40
2019-05-23T20:55:05.082Z,16.50
2019-05-23T20:57:33.524Z,16.40
2019-05-23T21:00:02.339Z,16.40
2019-05-23T21:02:30.996Z,16.30
2019-05-23T21:04:59.542Z,16.30
2019-05-23T21:07:28.041Z,16.20
2019-05-23T21:09:56.519Z,16.20
2019-05-23T21:12:29.953Z,16.20
2019-05-23T21:14:55.146Z,16.20
2019-05-23T21:17:25.242Z,16.20
2019-05-23T21:19:53.782Z,16.30
2019-05-23T21:22:22.329Z,16.40
2019-05-23T21:24:50.864Z,16.40
2019-05-23T21:27:19.344Z,16.40
2019-05-23T21:29:47.878Z,16.30
2019-05-23T21:32:17.084Z,16.20
2019-05-23T21:34:45.618Z,16.30
2019-05-23T21:37:14.064Z,16.30
2019-05-23T21:39:45.819Z,16.00
2019-05-23T21:42:14.317Z,15.90
2019-05-23T21:44:42.844Z,15.80
2019-05-23T21:47:11.570Z,15.70
2019-05-23T21:49:40.043Z,15.80
2019-05-23T21:52:08.614Z,15.70
2019-05-23T21:54:37.146Z,15.50
2019-05-23T21:57:06.227Z,15.60
2019-05-23T21:59:34.766Z,15.70
2019-05-23T22:02:11.502Z,15.80
2019-05-23T22:04:41.650Z,16.00
2019-05-23T22:07:10.193Z,16.00
2019-05-23T22:09:39.072Z,16.10
2019-05-23T22:12:09.247Z,16.00
2019-05-23T22:14:38.563Z,16.10
2019-05-23T22:17:07.088Z,16.00
2019-05-23T22:19:36.026Z,15.90
2019-05-23T22:22:05.381Z,15.90
2019-05-23T22:24:33.837Z,15.70
2019-05-23T22:27:02.375Z,15.60
2019-05-23T22:29:30.836Z,15.70
2019-05-23T22:31:59.357Z,15.70
2019-05-23T22:34:41.523Z,15.70
2019-05-23T22:37:14.750Z,15.70
2019-05-23T22:39:43.561Z,15.50
2019-05-23T22:42:13.577Z,15.20
2019-05-23T22:44:42.324Z,15.00
2019-05-23T22:47:10.784Z,14.80
2019-05-23T22:49:39.283Z,14.80
2019-05-23T22:52:07.862Z,14.90
2019-05-23T22:54:36.327Z,15.00
2019-05-23T22:57:05.242Z,15.00
2019-05-23T22:59:33.717Z,15.00
2019-05-23T23:02:02.419Z,15.00
2019-05-23T23:04:30.870Z,15.10
2019-05-23T23:06:59.506Z,15.00
2019-05-23T23:09:28.025Z,15.00
2019-05-23T23:11:57.130Z,14.90
2019-05-23T23:14:25.892Z,14.90
2019-05-23T23:16:54.903Z,14.60
2019-05-23T23:19:23.527Z,14.20
2019-05-23T23:21:52.039Z,13.90
2019-05-23T23:24:20.612Z,13.70
2019-05-23T23:26:49.118Z,13.50
2019-05-23T23:29:17.562Z,13.40
2019-05-23T23:31:46.246Z,13.30
2019-05-23T23:34:14.778Z,13.20
2019-05-23T23:36:43.229Z,13.20
2019-05-23T23:39:11.762Z,13.20
2019-05-23T23:41:40.234Z,13.20
2019-05-23T23:44:10.905Z,13.30
2019-05-23T23:46:57.531Z,13.40
2019-05-23T23:49:44.237Z,13.60
2019-05-23T23:52:30.985Z,13.80
2019-05-23T23:55:17.511Z,13.90
2019-05-23T23:58:00.405Z,13.80
